createdAt,value
2023-03-18T00:00:25.514Z,101115.34
2023-03-18T00:02:57.650Z,101116.90
2023-03-18T00:05:27.801Z,101115.69
2023-03-18T00:07:57.615Z,101111.98
2023-03-18T00:10:26.857Z,101114.67
2023-03-18T00:12:55.977Z,101113.37
2023-03-18T00:15:25.338Z,101113.11
2023-03-18T00:17:54.948Z,101115.70
2023-03-18T00:20:38.938Z,101112.75
2023-03-18T00:23:10.717Z,101109.54
2023-03-18T00:25:39.765Z,101106.69
2023-03-18T00:28:08.674Z,101103.40
2023-03-18T00:30:39.050Z,101112.26
2023-03-18T00:33:10.319Z,101113.73
2023-03-18T00:35:40.345Z,101112.41
2023-03-18T00:38:20.976Z,101116.45
2023-03-18T00:41:01.731Z,101127.05
2023-03-18T00:43:34.157Z,101128.96
2023-03-18T00:46:04.544Z,101129.34
2023-03-18T00:48:34.693Z,101126.63
2023-03-18T00:51:04.349Z,101124.02
2023-03-18T00:53:34.112Z,101128.56
2023-03-18T00:56:03.100Z,101128.19
2023-03-18T00:58:32.156Z,101126.35
2023-03-18T01:01:01.879Z,101123.27
2023-03-18T01:03:32.498Z,101131.20
2023-03-18T01:06:02.974Z,101131.44
2023-03-18T01:08:32.514Z,101132.59
2023-03-18T01:11:01.981Z,101139.72
2023-03-18T01:13:31.188Z,101140.26
2023-03-18T01:16:01.047Z,101142.19
2023-03-18T01:18:30.551Z,101146.00
2023-03-18T01:20:59.636Z,101142.77
2023-03-18T01:23:31.458Z,101141.05
2023-03-18T01:26:00.319Z,101145.70
2023-03-18T01:28:29.828Z,101148.11
2023-03-18T01:30:58.977Z,101149.58
2023-03-18T01:33:29.294Z,101150.41
2023-03-18T01:36:00.363Z,101149.17
2023-03-18T01:38:31.588Z,101150.48
2023-03-18T01:41:08.954Z,101155.55
2023-03-18T01:43:41.085Z,101158.48
2023-03-18T01:46:37.969Z,101164.45
2023-03-18T01:49:14.324Z,101160.15
2023-03-18T01:52:05.872Z,101158.00
2023-03-18T01:54:38.587Z,101164.45
2023-03-18T01:57:08.117Z,101167.38
2023-03-18T01:59:39.013Z,101169.73
2023-03-18T02:02:10.784Z,101170.07
2023-03-18T02:04:45.298Z,101169.91
2023-03-18T02:07:21.115Z,101171.66
2023-03-18T02:09:51.157Z,101168.84
2023-03-18T02:12:26.337Z,101170.67
2023-03-18T02:14:58.119Z,101173.70
2023-03-18T02:17:32.535Z,101176.15
2023-03-18T02:20:10.916Z,101179.99
2023-03-18T02:22:43.856Z,101179.60
2023-03-18T02:25:26.665Z,101181.61
2023-03-18T02:27:59.581Z,101180.61
2023-03-18T02:30:38.483Z,101181.38
2023-03-18T02:33:09.653Z,101183.84
2023-03-18T02:35:40.140Z,101183.19
2023-03-18T02:38:10.020Z,101183.77
2023-03-18T02:40:40.203Z,101180.48
2023-03-18T02:43:28.153Z,101186.90
2023-03-18T02:46:44.396Z,101185.49
2023-03-18T02:49:13.735Z,101186.46
2023-03-18T02:51:43.037Z,101186.05
2023-03-18T02:54:14.764Z,101190.52
2023-03-18T02:56:44.152Z,101191.94
2023-03-18T02:59:14.705Z,101192.35
2023-03-18T03:01:44.593Z,101189.88
2023-03-18T03:04:14.279Z,101189.77
2023-03-18T03:06:43.633Z,101190.59
2023-03-18T03:09:14.565Z,101191.73
2023-03-18T03:11:45.075Z,101192.77
2023-03-18T03:14:17.014Z,101189.27
2023-03-18T03:16:47.759Z,101192.11
2023-03-18T03:19:24.162Z,101192.84
2023-03-18T03:21:54.043Z,101193.66
2023-03-18T03:24:22.866Z,101199.27
2023-03-18T03:26:53.468Z,101201.45
2023-03-18T03:29:22.182Z,101203.00
2023-03-18T03:31:51.891Z,101199.45
2023-03-18T03:34:21.705Z,101200.39
2023-03-18T03:36:50.486Z,101203.61
2023-03-18T03:39:20.598Z,101205.87
2023-03-18T03:41:49.610Z,101199.59
2023-03-18T03:44:18.485Z,101208.38
2023-03-18T03:46:51.555Z,101210.70
2023-03-18T03:49:20.573Z,101209.30
2023-03-18T03:51:49.490Z,101208.88
2023-03-18T03:54:20.188Z,101213.89
2023-03-18T03:56:50.946Z,101217.81
2023-03-18T03:59:21.015Z,101215.57
2023-03-18T04:02:12.167Z,101212.41
2023-03-18T04:04:45.617Z,101213.84
2023-03-18T04:07:23.034Z,101214.44
2023-03-18T04:09:52.087Z,101216.15
2023-03-18T04:12:21.550Z,101220.45
2023-03-18T04:14:57.088Z,101218.61
2023-03-18T04:17:25.941Z,101218.67
2023-03-18T04:19:54.971Z,101214.88
2023-03-18T04:22:24.613Z,101218.55
2023-03-18T04:24:53.751Z,101219.54
2023-03-18T04:27:23.347Z,101219.36
2023-03-18T04:29:56.738Z,101216.80
2023-03-18T04:32:30.960Z,101218.77
2023-03-18T04:35:00.341Z,101219.54
2023-03-18T04:37:29.662Z,101218.34
2023-03-18T04:39:59.708Z,101220.11
2023-03-18T04:42:28.801Z,101218.30
2023-03-18T04:44:58.312Z,101220.10
2023-03-18T04:47:28.732Z,101218.30
2023-03-18T04:49:58.670Z,101222.80
2023-03-18T04:52:27.865Z,101223.50
2023-03-18T04:54:57.143Z,101220.80
2023-03-18T04:57:26.788Z,101223.33
2023-03-18T05:00:02.414Z,101226.81
2023-03-18T05:02:32.713Z,101230.50
2023-03-18T05:05:01.666Z,101231.66
2023-03-18T05:07:32.387Z,101229.39
2023-03-18T05:10:07.413Z,101228.36
2023-03-18T05:12:43.855Z,101231.17
2023-03-18T05:15:14.808Z,101232.92
2023-03-18T05:17:48.892Z,101238.14
2023-03-18T05:20:19.073Z,101238.34
2023-03-18T05:22:50.241Z,101240.45
2023-03-18T05:25:28.873Z,101236.35
2023-03-18T05:27:59.144Z,101236.24
2023-03-18T05:30:34.838Z,101234.58
2023-03-18T05:33:05.386Z,101232.10
2023-03-18T05:35:45.781Z,101234.84
2023-03-18T05:38:15.171Z,101231.59
2023-03-18T05:40:45.097Z,101235.30
2023-03-18T05:43:22.375Z,101234.05
2023-03-18T05:45:55.584Z,101233.09
2023-03-18T05:48:32.393Z,101237.67
2023-03-18T05:51:06.367Z,101243.15
2023-03-18T05:53:36.645Z,101243.45
2023-03-18T05:56:31.850Z,101245.14
2023-03-18T05:59:04.104Z,101248.44
2023-03-18T06:01:46.333Z,101251.86
2023-03-18T06:04:17.748Z,101246.70
2023-03-18T06:06:47.385Z,101243.25
2023-03-18T06:09:21.124Z,101246.94
2023-03-18T06:11:52.054Z,101250.83
2023-03-18T06:14:21.622Z,101253.08
2023-03-18T06:16:52.822Z,101254.80
2023-03-18T06:19:23.067Z,101257.80
2023-03-18T06:21:53.155Z,101258.30
2023-03-18T06:24:22.296Z,101255.39
2023-03-18T06:26:52.282Z,101256.27
2023-03-18T06:29:25.657Z,101252.05
2023-03-18T06:31:56.047Z,101252.58
2023-03-18T06:34:33.035Z,101256.69
2023-03-18T06:37:03.872Z,101259.84
2023-03-18T06:39:33.513Z,101264.20
2023-03-18T06:42:05.467Z,101264.05
2023-03-18T06:44:43.276Z,101265.45
2023-03-18T06:47:21.559Z,101268.16
2023-03-18T06:49:57.073Z,101266.70
2023-03-18T06:52:33.190Z,101266.36
2023-03-18T06:55:07.596Z,101268.53
2023-03-18T06:57:40.901Z,101273.04
2023-03-18T07:00:14.302Z,101277.70
2023-03-18T07:02:44.379Z,101278.27
2023-03-18T07:05:15.413Z,101278.06
2023-03-18T07:07:44.818Z,101282.25
2023-03-18T07:10:27.891Z,101280.27
2023-03-18T07:13:02.769Z,101280.17
2023-03-18T07:15:33.693Z,101281.52
2023-03-18T07:18:05.506Z,101282.02
2023-03-18T07:20:37.164Z,101283.98
2023-03-18T07:23:07.631Z,101274.87
2023-03-18T07:25:37.007Z,101275.53
2023-03-18T07:28:06.862Z,101274.70
2023-03-18T07:30:36.277Z,101277.04
2023-03-18T07:33:07.482Z,101270.96
2023-03-18T07:35:41.370Z,101273.96
2023-03-18T07:38:10.797Z,101277.48
2023-03-18T07:40:39.859Z,101278.08
2023-03-18T07:43:09.762Z,101274.25
2023-03-18T07:45:41.638Z,101272.89
2023-03-18T07:48:11.117Z,101280.23
2023-03-18T07:50:41.422Z,101274.71
2023-03-18T07:53:11.085Z,101271.09
2023-03-18T07:55:41.317Z,101274.05
2023-03-18T07:58:10.558Z,101268.98
2023-03-18T08:00:40.247Z,101268.63
2023-03-18T08:03:10.360Z,101271.84
2023-03-18T08:05:40.288Z,101270.91
2023-03-18T08:08:10.317Z,101268.27
2023-03-18T08:10:43.791Z,101268.87
2023-03-18T08:13:13.859Z,101270.70
2023-03-18T08:15:43.116Z,101271.11
2023-03-18T08:18:14.384Z,101275.90
2023-03-18T08:20:45.226Z,101273.98
2023-03-18T08:23:15.190Z,101272.23
2023-03-18T08:25:44.359Z,101273.02
2023-03-18T08:28:14.331Z,101272.39
2023-03-18T08:30:48.135Z,101277.02
2023-03-18T08:33:17.403Z,101279.50
2023-03-18T08:35:46.891Z,101282.13
2023-03-18T08:38:16.523Z,101279.41
2023-03-18T08:40:47.028Z,101283.39
2023-03-18T08:43:16.092Z,101278.83
2023-03-18T08:45:46.427Z,101280.00
2023-03-18T08:48:15.401Z,101281.08
2023-03-18T08:50:50.070Z,101280.86
2023-03-18T08:53:19.996Z,101283.58
2023-03-18T08:55:48.946Z,101280.35
2023-03-18T08:58:19.885Z,101279.50
2023-03-18T09:00:50.926Z,101280.10
2023-03-18T09:03:22.414Z,101278.82
2023-03-18T09:05:53.906Z,101275.36
2023-03-18T09:08:23.035Z,101277.42
2023-03-18T09:10:54.862Z,101284.17
2023-03-18T09:13:24.581Z,101281.30
2023-03-18T09:15:57.621Z,101280.90
2023-03-18T09:18:29.950Z,101282.94
2023-03-18T09:20:58.913Z,101283.67
2023-03-18T09:23:29.984Z,101283.80
2023-03-18T09:26:00.334Z,101285.10
2023-03-18T09:28:29.645Z,101278.66
2023-03-18T09:30:58.931Z,101280.15
2023-03-18T09:33:28.344Z,101282.59
2023-03-18T09:35:57.566Z,101286.06
2023-03-18T09:38:28.177Z,101280.07
2023-03-18T09:41:13.591Z,101277.88
2023-03-18T09:44:21.941Z,101273.99
2023-03-18T09:47:23.407Z,101269.96
2023-03-18T09:50:06.078Z,101272.49
2023-03-18T09:52:46.336Z,101275.17
2023-03-18T09:55:40.682Z,101270.15
2023-03-18T09:58:26.292Z,101270.49
2023-03-18T10:01:03.960Z,101269.80
2023-03-18T10:04:14.205Z,101266.89
2023-03-18T10:06:43.724Z,101259.30
2023-03-18T10:09:47.582Z,101258.39
2023-03-18T10:12:45.890Z,101261.20
2023-03-18T10:15:27.379Z,101261.23
2023-03-18T10:18:27.114Z,101254.46
2023-03-18T10:21:29.788Z,101256.62
2023-03-18T10:24:32.930Z,101257.96
2023-03-18T10:27:25.813Z,101256.66
2023-03-18T10:30:27.997Z,101259.55
2023-03-18T10:33:18.431Z,101261.20
2023-03-18T10:36:02.512Z,101261.15
2023-03-18T10:38:38.722Z,101257.02
2023-03-18T10:41:25.886Z,101255.27
2023-03-18T10:43:56.996Z,101248.67
2023-03-18T10:46:26.342Z,101245.49
2023-03-18T10:49:01.222Z,101242.80
2023-03-18T10:51:37.576Z,101244.16
2023-03-18T10:54:14.027Z,101239.95
2023-03-18T10:56:44.154Z,101241.37
2023-03-18T10:59:18.539Z,101232.71
2023-03-18T11:02:15.056Z,101233.87
2023-03-18T11:04:55.838Z,101226.48
2023-03-18T11:07:28.306Z,101228.05
2023-03-18T11:10:12.671Z,101229.33
2023-03-18T11:12:42.603Z,101231.73
2023-03-18T11:15:13.337Z,101230.39
2023-03-18T11:17:43.811Z,101228.05
2023-03-18T11:20:21.429Z,101223.71
2023-03-18T11:22:53.536Z,101221.21
2023-03-18T11:25:26.264Z,101219.93
2023-03-18T11:28:04.654Z,101215.95
2023-03-18T11:30:46.594Z,101206.20
2023-03-18T11:33:17.640Z,101204.79
2023-03-18T11:35:58.255Z,101202.02
2023-03-18T11:38:29.559Z,101201.61
2023-03-18T11:41:09.050Z,101195.00
2023-03-18T11:43:38.843Z,101192.86
2023-03-18T11:46:09.514Z,101188.39
2023-03-18T11:48:41.054Z,101190.38
2023-03-18T11:51:40.084Z,101189.67
2023-03-18T11:54:43.828Z,101187.68
2023-03-18T11:57:20.856Z,101180.61
2023-03-18T12:00:05.785Z,101181.38
2023-03-18T12:03:19.545Z,101183.96
2023-03-18T12:05:52.886Z,101184.38
2023-03-18T12:09:07.483Z,101185.14
2023-03-18T12:12:05.276Z,101173.92
2023-03-18T12:14:39.520Z,101173.35
2023-03-18T12:17:24.655Z,101171.46
2023-03-18T12:20:30.730Z,101168.90
2023-03-18T12:23:27.877Z,101167.38
2023-03-18T12:26:25.390Z,101162.19
2023-03-18T12:29:19.506Z,101162.29
2023-03-18T12:31:57.683Z,101158.25
2023-03-18T12:34:47.174Z,101155.95
2023-03-18T12:37:34.890Z,101153.67
2023-03-18T12:40:13.282Z,101164.30
2023-03-18T12:42:52.511Z,101162.27
2023-03-18T12:45:24.275Z,101155.22
2023-03-18T12:48:13.128Z,101156.92
2023-03-18T12:50:43.488Z,101155.75
2023-03-18T12:53:17.771Z,101156.20
2023-03-18T12:55:50.997Z,101152.48
2023-03-18T12:58:23.873Z,101152.41
2023-03-18T13:00:58.005Z,101151.80
2023-03-18T13:03:38.945Z,101153.70
2023-03-18T13:06:34.565Z,101147.89
2023-03-18T13:09:27.217Z,101143.60
2023-03-18T13:12:21.029Z,101138.38
2023-03-18T13:15:08.858Z,101135.45
2023-03-18T13:17:40.451Z,101133.89
2023-03-18T13:20:34.303Z,101133.45
2023-03-18T13:23:41.882Z,101132.13
2023-03-18T13:26:15.745Z,101124.56
2023-03-18T13:29:08.402Z,101124.42
2023-03-18T13:31:47.925Z,101129.88
2023-03-18T13:34:43.663Z,101124.20
2023-03-18T13:37:37.032Z,101127.83
2023-03-18T13:40:10.576Z,101122.45
2023-03-18T13:42:39.674Z,101117.11
2023-03-18T13:45:22.806Z,101117.19
2023-03-18T13:47:59.911Z,101123.41
2023-03-18T13:50:43.727Z,101123.75
2023-03-18T13:53:26.780Z,101124.52
2023-03-18T13:55:59.012Z,101123.56
2023-03-18T13:58:30.833Z,101120.91
2023-03-18T14:01:56.747Z,101124.83
2023-03-18T14:04:32.524Z,101121.44
2023-03-18T14:07:16.319Z,101119.26
2023-03-18T14:10:15.396Z,101122.17
2023-03-18T14:12:48.765Z,101121.17
2023-03-18T14:15:24.460Z,101112.42
2023-03-18T14:17:59.064Z,101116.27
2023-03-18T14:20:29.131Z,101117.61
2023-03-18T14:23:37.976Z,101122.73
2023-03-18T14:26:17.268Z,101124.29
2023-03-18T14:29:11.436Z,101126.27
2023-03-18T14:31:44.771Z,101123.02
2023-03-18T14:34:20.143Z,101121.11
2023-03-18T14:36:55.091Z,101124.16
2023-03-18T14:39:34.739Z,101118.50
2023-03-18T14:42:21.748Z,101115.23
2023-03-18T14:44:54.394Z,101118.17
2023-03-18T14:47:54.874Z,101111.67
2023-03-18T14:50:47.485Z,101111.22
2023-03-18T14:53:26.455Z,101115.33
2023-03-18T14:55:57.401Z,101113.41
2023-03-18T14:58:27.932Z,101112.20
2023-03-18T15:01:05.679Z,101104.92
2023-03-18T15:03:35.374Z,101108.08
2023-03-18T15:06:05.321Z,101105.39
2023-03-18T15:08:47.329Z,101106.03
2023-03-18T15:11:19.247Z,101114.80
2023-03-18T15:13:48.369Z,101115.48
2023-03-18T15:16:20.689Z,101111.14
2023-03-18T15:18:55.295Z,101113.08
2023-03-18T15:21:35.472Z,101110.58
2023-03-18T15:24:08.072Z,101116.27
2023-03-18T15:26:39.630Z,101113.98
2023-03-18T15:30:01.354Z,101112.69
2023-03-18T15:32:32.699Z,101115.92
2023-03-18T15:35:12.297Z,101116.41
2023-03-18T15:37:43.500Z,101115.36
2023-03-18T15:40:26.545Z,101114.23
2023-03-18T15:42:58.850Z,101121.69
2023-03-18T15:45:29.332Z,101124.42
2023-03-18T15:48:00.125Z,101122.81
2023-03-18T15:50:30.964Z,101125.20
2023-03-18T15:53:30.794Z,101125.42
2023-03-18T15:56:08.002Z,101121.73
2023-03-18T15:58:38.220Z,101128.19
2023-03-18T16:01:08.453Z,101127.90
2023-03-18T16:03:43.793Z,101136.34
2023-03-18T16:06:15.272Z,101135.80
2023-03-18T16:08:46.491Z,101133.94
2023-03-18T16:11:18.254Z,101133.24
2023-03-18T16:13:47.909Z,101131.67
2023-03-18T16:16:29.455Z,101135.95
2023-03-18T16:19:00.150Z,101135.02
2023-03-18T16:21:30.008Z,101137.44
2023-03-18T16:23:59.336Z,101138.17
2023-03-18T16:26:28.705Z,101138.13
2023-03-18T16:28:57.639Z,101135.71
2023-03-18T16:31:28.256Z,101136.63
2023-03-18T16:33:57.364Z,101137.52
2023-03-18T16:36:32.642Z,101140.05
2023-03-18T16:39:02.120Z,101140.99
2023-03-18T16:41:32.013Z,101139.11
2023-03-18T16:44:02.143Z,101139.29
2023-03-18T16:46:39.097Z,101136.36
2023-03-18T16:49:16.734Z,101135.95
2023-03-18T16:51:47.244Z,101138.09
2023-03-18T16:54:22.090Z,101137.57
2023-03-18T16:56:53.056Z,101134.28
2023-03-18T16:59:25.444Z,101135.70
2023-03-18T17:01:54.611Z,101133.66
2023-03-18T17:04:34.800Z,101135.92
2023-03-18T17:07:05.069Z,101134.35
2023-03-18T17:09:34.837Z,101137.38
2023-03-18T17:12:07.621Z,101133.91
2023-03-18T17:14:39.256Z,101133.14
2023-03-18T17:17:14.730Z,101133.00
2023-03-18T17:19:46.296Z,101133.33
2023-03-18T17:22:24.136Z,101133.27
2023-03-18T17:24:54.059Z,101136.04
2023-03-18T17:27:40.104Z,101135.77
2023-03-18T17:30:20.875Z,101134.77
2023-03-18T17:32:50.340Z,101134.14
2023-03-18T17:35:21.661Z,101135.31
2023-03-18T17:37:51.102Z,101136.70
2023-03-18T17:40:22.881Z,101135.19
2023-03-18T17:42:54.388Z,101133.27
2023-03-18T17:45:32.870Z,101136.67
2023-03-18T17:48:30.495Z,101140.44
2023-03-18T17:51:20.153Z,101140.85
2023-03-18T17:53:56.894Z,101145.70
2023-03-18T17:56:28.340Z,101143.85
2023-03-18T17:58:59.290Z,101147.23
2023-03-18T18:01:30.497Z,101148.39
2023-03-18T18:04:00.935Z,101150.52
2023-03-18T18:06:30.788Z,101152.33
2023-03-18T18:09:00.781Z,101151.73
2023-03-18T18:11:38.363Z,101153.54
2023-03-18T18:14:16.136Z,101153.48
2023-03-18T18:16:46.586Z,101147.95
2023-03-18T18:19:16.629Z,101148.20
2023-03-18T18:21:46.607Z,101149.92
2023-03-18T18:24:26.929Z,101149.58
2023-03-18T18:26:58.201Z,101156.88
2023-03-18T18:29:34.889Z,101156.05
2023-03-18T18:32:07.232Z,101158.15
2023-03-18T18:34:37.268Z,101155.02
2023-03-18T18:37:07.036Z,101154.11
2023-03-18T18:39:35.968Z,101154.20
2023-03-18T18:42:12.791Z,101161.04
2023-03-18T18:44:43.839Z,101158.00
2023-03-18T18:47:23.878Z,101157.61
2023-03-18T18:49:53.251Z,101153.83
2023-03-18T18:52:23.792Z,101160.85
2023-03-18T18:54:53.102Z,101161.27
2023-03-18T18:57:30.924Z,101162.77
2023-03-18T18:59:59.950Z,101159.20
2023-03-18T19:02:37.975Z,101160.20
2023-03-18T19:05:08.597Z,101162.45
2023-03-18T19:07:37.946Z,101170.88
2023-03-18T19:10:08.911Z,101169.76
2023-03-18T19:12:44.830Z,101169.77
2023-03-18T19:15:15.673Z,101170.95
2023-03-18T19:17:46.995Z,101167.75
2023-03-18T19:20:30.236Z,101175.02
2023-03-18T19:22:59.985Z,101183.64
2023-03-18T19:25:30.125Z,101183.40
2023-03-18T19:27:59.531Z,101182.64
2023-03-18T19:30:29.701Z,101181.46
2023-03-18T19:33:00.212Z,101178.35
2023-03-18T19:35:29.459Z,101180.98
2023-03-18T19:37:59.795Z,101183.09
2023-03-18T19:40:34.710Z,101182.15
2023-03-18T19:43:14.076Z,101181.15
2023-03-18T19:45:44.737Z,101179.68
2023-03-18T19:48:24.021Z,101179.89
2023-03-18T19:50:53.478Z,101179.64
2023-03-18T19:53:24.534Z,101178.05
2023-03-18T19:55:54.107Z,101175.77
2023-03-18T19:58:26.710Z,101175.99
2023-03-18T20:00:56.787Z,101174.57
2023-03-18T20:03:27.037Z,101175.95
2023-03-18T20:06:03.943Z,101170.45
2023-03-18T20:08:34.294Z,101168.51
2023-03-18T20:11:03.497Z,101167.61
2023-03-18T20:13:40.322Z,101163.11
2023-03-18T20:16:15.265Z,101165.63
2023-03-18T20:18:44.650Z,101167.63
2023-03-18T20:21:35.729Z,101164.02
2023-03-18T20:24:10.112Z,101161.04
2023-03-18T20:26:44.776Z,101158.74
2023-03-18T20:29:21.272Z,101156.72
2023-03-18T20:31:50.470Z,101157.04
2023-03-18T20:34:20.419Z,101153.39
2023-03-18T20:36:49.765Z,101150.18
2023-03-18T20:39:20.741Z,101145.45
2023-03-18T20:41:50.536Z,101146.92
2023-03-18T20:44:19.604Z,101150.55
2023-03-18T20:46:48.589Z,101151.34
2023-03-18T20:49:20.271Z,101151.14
2023-03-18T20:51:51.178Z,101150.60
2023-03-18T20:54:23.866Z,101146.22
2023-03-18T20:56:52.770Z,101146.87
2023-03-18T20:59:22.358Z,101144.30
2023-03-18T21:01:51.959Z,101142.83
2023-03-18T21:04:20.928Z,101143.42
2023-03-18T21:06:49.994Z,101142.06
2023-03-18T21:09:19.148Z,101138.56
2023-03-18T21:11:48.056Z,101141.98
2023-03-18T21:14:17.279Z,101142.04
2023-03-18T21:16:46.773Z,101138.63
2023-03-18T21:19:17.604Z,101140.26
2023-03-18T21:21:46.752Z,101136.70
2023-03-18T21:24:24.234Z,101134.23
2023-03-18T21:27:04.338Z,101140.21
2023-03-18T21:29:34.595Z,101136.57
2023-03-18T21:32:05.713Z,101134.64
2023-03-18T21:34:36.890Z,101136.85
2023-03-18T21:37:13.135Z,101136.06
2023-03-18T21:39:43.325Z,101138.59
2023-03-18T21:42:17.897Z,101141.77
2023-03-18T21:44:47.248Z,101144.23
2023-03-18T21:47:18.112Z,101148.23
2023-03-18T21:49:49.699Z,101143.73
2023-03-18T21:52:23.063Z,101148.75
2023-03-18T21:54:52.417Z,101151.45
2023-03-18T21:57:23.600Z,101150.09
2023-03-18T21:59:53.173Z,101149.54
2023-03-18T22:02:25.259Z,101148.73
2023-03-18T22:04:55.647Z,101144.05
2023-03-18T22:07:31.740Z,101144.81
2023-03-18T22:10:01.535Z,101143.98
2023-03-18T22:12:31.687Z,101148.98
2023-03-18T22:15:01.189Z,101149.95
2023-03-18T22:17:32.382Z,101147.18
2023-03-18T22:20:01.876Z,101145.02
2023-03-18T22:22:37.266Z,101143.84
2023-03-18T22:25:08.841Z,101140.30
2023-03-18T22:27:37.868Z,101140.43
2023-03-18T22:30:09.859Z,101137.95
2023-03-18T22:32:41.622Z,101138.42
2023-03-18T22:35:18.043Z,101135.86
2023-03-18T22:37:47.340Z,101140.80
2023-03-18T22:40:18.825Z,101140.25
2023-03-18T22:42:48.812Z,101134.42
2023-03-18T22:45:26.228Z,101132.39
2023-03-18T22:47:58.670Z,101131.10
2023-03-18T22:50:28.820Z,101133.82
2023-03-18T22:53:07.828Z,101135.61
2023-03-18T22:55:39.286Z,101141.01
2023-03-18T22:58:08.221Z,101136.48
2023-03-18T23:00:41.539Z,101136.27
2023-03-18T23:03:14.152Z,101132.13
2023-03-18T23:05:43.060Z,101130.55
2023-03-18T23:08:12.411Z,101128.81
2023-03-18T23:10:44.059Z,101120.60
2023-03-18T23:13:17.301Z,101122.57
2023-03-18T23:15:47.996Z,101118.48
2023-03-18T23:18:17.570Z,101117.47
2023-03-18T23:20:48.636Z,101118.89
2023-03-18T23:23:18.635Z,101117.13
2023-03-18T23:25:47.916Z,101113.63
2023-03-18T23:28:21.436Z,101109.64
2023-03-18T23:30:51.847Z,101107.98
2023-03-18T23:33:21.171Z,101106.15
2023-03-18T23:35:50.172Z,101101.95
2023-03-18T23:38:19.508Z,101094.70
2023-03-18T23:40:48.750Z,101090.55
2023-03-18T23:43:21.821Z,101085.21
2023-03-18T23:45:51.617Z,101088.16
2023-03-18T23:48:20.837Z,101085.02
2023-03-18T23:50:50.193Z,101078.54
2023-03-18T23:53:21.196Z,101080.20
2023-03-18T23:55:50.567Z,101074.14
2023-03-18T23:58:20.380Z,101075.45
